This is the latest recevied weather packets stored in our database for station/object UB2FAY-13. If no packets are shown the sender has not sent any weather packets the latest 10 day(s).
| Time | Temp. | Humidity | Pressure | Rain* | Wind** | Luminosity | Snow |
|---|---|---|---|---|---|---|---|
| 1777350423 | 3.89° C | 79% | 1024.3 hPa | 0 mm | - | - | - |
| 1777349823 | 3.33° C | 79% | 1024.2 hPa | 0 mm | - | - | - |
| 1777349223 | 3.33° C | 79% | 1024.5 hPa | 0 mm | - | - | - |
| 1777348623 | 3.33° C | 80% | 1024.4 hPa | 0 mm | - | - | - |
| 1777347423 | 2.78° C | 81% | 1024.4 hPa | 0 mm | - | - | - |
| 1777346823 | 2.22° C | 81% | 1024.3 hPa | 0 mm | - | - | - |
| 1777346223 | 2.22° C | 82% | 1024.4 hPa | 0 mm | - | - | - |
| 1777345023 | 1.67° C | 81% | 1024.3 hPa | 0 mm | - | - | - |
| 1777343826 | 1.67° C | 81% | 1024.3 hPa | 0 mm | - | - | - |
| 1777343223 | 1.67° C | 81% | 1024.4 hPa | 0 mm | - | - | - |
| 1777342623 | 1.67° C | 80% | 1024.3 hPa | 0 mm | - | - | - |
| 1777342023 | 1.67° C | 80% | 1024.2 hPa | 0 mm | - | - | - |
| 1777341423 | 1.67° C | 79% | 1024.3 hPa | 0 mm | - | - | - |
| 1777340823 | 1.67° C | 78% | 1024.3 hPa | 0 mm | - | - | - |
| 1777340223 | 1.67° C | 79% | 1024.2 hPa | 0 mm | - | - | - |
| 1777339023 | 1.67° C | 80% | 1024.2 hPa | 0 mm | - | - | - |
| 1777337829 | 1.67° C | 80% | 1023.9 hPa | 0 mm | - | - | - |
| 1777336024 | 1.67° C | 80% | 1023.8 hPa | 0 mm | - | - | - |
| 1777312624 | 3.89° C | 67% | 1023.4 hPa | 0 mm | - | - | - |
| 1777295224 | 7.78° C | 41% | 1022.3 hPa | 0 mm | - | - | - |
| 1777291659 | 7.78° C | 42% | 1022.5 hPa | 0 mm | - | - | - |
| 1777291624 | 7.78° C | 42% | 1022.5 hPa | 0 mm | - | - | - |
| 1777288624 | 7.78° C | 42% | 1022.4 hPa | 0 mm | - | - | - |
| 1777286825 | 8.33° C | 41% | 1021.9 hPa | 0 mm | - | - | - |
| 1777283225 | 8.33° C | 46% | 1021.7 hPa | 0 mm | - | - | - |
* Rain latest hour (hover to see other rain measurements)
** Current wind speed in m/s (hover to see current wind gust speed)